Ely, NV (89315)

4:00 PM PST on January 24, 2017 (GMT -0800)
MCMP25 | | Change Station

Elev 6248 ft 39.29 °N, 114.84 °W | Updated 1 hour ago

Snow
Snow
26.0 °F
Feels Like 19 °F
N
6.0
Wind Variable Wind from NW
Gusts 10.0 mph

Today
High -- | Low -- °F
--% Chance of Precip.
Yesterday
High -- | Low -- °F
Precip. -- in
Pressure 30.05 in
Visibility 9.0 miles
Clouds Few 4400 ft
Mostly Cloudy 5500 ft
Overcast 7500 ft
Windchill 19 °F
Dew Point 14 °F
Humidity 60%
Rainfall 0.00 in
Snow Depth Not available.
6:52 AM 4:51 PM
Waning Crescent, 9% visible
METAR KELY 242353Z AUTO 35005KT 9SM -SN FEW044 BKN055 OVC075 M05/M10 A2986 RMK AO2 SNB10E30B46 SLP175 P0000 60000 T10501100 11028 21106 53015
Pressure 30.05 in
Visibility 9.0 miles
Clouds Few 4400 ft
Mostly Cloudy 5500 ft
Overcast 7500 ft
Windchill 19 °F
Dew Point 14 °F
Humidity 60%
Rainfall 0.00 in
Snow Depth Not available.
6:52 AM 4:51 PM
Waning Crescent, 9% visible
METAR KELY 242353Z AUTO 35005KT 9SM -SN FEW044 BKN055 OVC075 M05/M10 A2986 RMK AO2 SNB10E30B46 SLP175 P0000 60000 T10501100 11028 21106 53015

Get Your Daily Forecast Email!

Thanks for signing up!

Be on the lookout for a verification email in your inbox.

You'll start receiving the daily forecast at 8 AM.

×

10-Day Weather Forecast

Almanac

Astronomy

Jan. 24, 2017 Rise Set
Actual Time
Civil Twilight
Nautical Twilight
Astronomical Twilight
Moon
Length of Visible Light
Length of Day
Tomorrow will be .
, % of the Moon is Illuminated

Today's Extremes

State Highs State Lows

Community

WunderPhotos

Upload Photos

1,962,540 photos uploaded!

WunderBlog® & News

Nearby

Air Quality

  Air Quality AQ Index Pollutant
Not available.

Snow Depth

Station Depth Elevation

Earthquake Activity

City Distance Mag. Time & Date
Minimum magnitude displayed is 2.5.

Coastal Water Temperatures

Place Temperature

Stations

Nearby Weather Stations

Station Location Temp. Windchill Dew Point Humidity Wind Precip. Elev Updated Type
                   

Watches & Warnings

There are currently no watches in effect.